sensor_id;sensor_type;location;lat;lon;timestamp;pressure;altitude;pressure_sealevel;temperature;humidity
11395;BME280;5753;54.402;10.220;2023-05-29T00:00:24;102399.41;;;19.67;41.63
11395;BME280;5753;54.402;10.220;2023-05-29T00:02:51;102400.38;;;20.13;40.57
11395;BME280;5753;54.402;10.220;2023-05-29T00:05:17;102407.69;;;18.90;42.42
11395;BME280;5753;54.402;10.220;2023-05-29T00:07:44;102406.97;;;19.11;42.56
11395;BME280;5753;54.402;10.220;2023-05-29T00:10:11;102413.16;;;19.33;42.03
11395;BME280;5753;54.402;10.220;2023-05-29T00:12:38;102409.63;;;19.23;41.30
11395;BME280;5753;54.402;10.220;2023-05-29T00:15:04;102400.78;;;18.95;42.55
11395;BME280;5753;54.402;10.220;2023-05-29T00:17:31;102398.06;;;18.84;42.18
11395;BME280;5753;54.402;10.220;2023-05-29T00:20:01;102391.31;;;19.18;41.89
11395;BME280;5753;54.402;10.220;2023-05-29T00:22:29;102396.91;;;18.47;43.10
11395;BME280;5753;54.402;10.220;2023-05-29T00:24:55;102400.59;;;18.71;42.33
11395;BME280;5753;54.402;10.220;2023-05-29T00:27:21;102406.94;;;19.05;42.08
11395;BME280;5753;54.402;10.220;2023-05-29T00:29:47;102399.84;;;18.92;42.40
11395;BME280;5753;54.402;10.220;2023-05-29T00:32:13;102399.44;;;18.40;43.45
11395;BME280;5753;54.402;10.220;2023-05-29T00:34:39;102396.31;;;18.83;41.81
11395;BME280;5753;54.402;10.220;2023-05-29T00:37:05;102398.69;;;18.53;43.16
11395;BME280;5753;54.402;10.220;2023-05-29T00:39:32;102394.59;;;18.85;42.42
11395;BME280;5753;54.402;10.220;2023-05-29T00:41:58;102396.13;;;18.59;42.68
11395;BME280;5753;54.402;10.220;2023-05-29T00:44:24;102410.41;;;19.05;41.57
11395;BME280;5753;54.402;10.220;2023-05-29T00:46:52;102401.03;;;19.44;41.12
11395;BME280;5753;54.402;10.220;2023-05-29T00:49:22;102407.53;;;18.69;43.06
11395;BME280;5753;54.402;10.220;2023-05-29T00:51:51;102410.56;;;19.37;41.68
11395;BME280;5753;54.402;10.220;2023-05-29T00:54:26;102404.44;;;19.28;41.94
11395;BME280;5753;54.402;10.220;2023-05-29T00:56:53;102396.22;;;18.68;42.55
11395;BME280;5753;54.402;10.220;2023-05-29T00:59:20;102406.28;;;19.45;40.91
11395;BME280;5753;54.402;10.220;2023-05-29T01:01:49;102407.16;;;19.46;41.00
11395;BME280;5753;54.402;10.220;2023-05-29T01:04:17;102401.06;;;19.50;40.85
11395;BME280;5753;54.402;10.220;2023-05-29T01:06:43;102412.31;;;18.20;43.28
11395;BME280;5753;54.402;10.220;2023-05-29T01:09:11;102409.13;;;17.67;43.75
11395;BME280;5753;54.402;10.220;2023-05-29T01:20:45;102425.81;;;18.67;42.17
11395;BME280;5753;54.402;10.220;2023-05-29T01:28:33;102439.81;;;18.77;42.40
11395;BME280;5753;54.402;10.220;2023-05-29T01:31:04;102440.31;;;18.38;42.73
11395;BME280;5753;54.402;10.220;2023-05-29T01:33:32;102426.63;;;17.77;43.48
11395;BME280;5753;54.402;10.220;2023-05-29T01:35:58;102428.47;;;17.87;43.92
11395;BME280;5753;54.402;10.220;2023-05-29T01:38:24;102429.31;;;18.69;42.63
11395;BME280;5753;54.402;10.220;2023-05-29T01:40:50;102426.34;;;18.31;43.06
11395;BME280;5753;54.402;10.220;2023-05-29T01:43:17;102427.31;;;18.44;43.05
11395;BME280;5753;54.402;10.220;2023-05-29T01:45:43;102422.00;;;18.32;42.98
11395;BME280;5753;54.402;10.220;2023-05-29T01:48:10;102431.34;;;19.07;41.32
11395;BME280;5753;54.402;10.220;2023-05-29T01:50:37;102427.53;;;18.65;42.32
11395;BME280;5753;54.402;10.220;2023-05-29T01:53:05;102422.59;;;18.02;43.67
11395;BME280;5753;54.402;10.220;2023-05-29T01:55:31;102420.75;;;17.26;44.75
11395;BME280;5753;54.402;10.220;2023-05-29T01:57:58;102424.50;;;18.19;43.06
11395;BME280;5753;54.402;10.220;2023-05-29T02:00:24;102429.53;;;18.97;41.63
11395;BME280;5753;54.402;10.220;2023-05-29T02:02:51;102423.75;;;18.36;43.36
11395;BME280;5753;54.402;10.220;2023-05-29T02:05:17;102426.91;;;18.00;43.54
11395;BME280;5753;54.402;10.220;2023-05-29T02:07:43;102425.41;;;18.24;43.33
11395;BME280;5753;54.402;10.220;2023-05-29T02:10:09;102427.63;;;18.77;41.67
11395;BME280;5753;54.402;10.220;2023-05-29T02:12:36;102429.03;;;18.42;42.78
11395;BME280;5753;54.402;10.220;2023-05-29T02:15:02;102429.41;;;18.84;41.69
11395;BME280;5753;54.402;10.220;2023-05-29T02:17:28;102425.22;;;19.06;41.35
11395;BME280;5753;54.402;10.220;2023-05-29T02:19:54;102420.25;;;18.34;42.70
11395;BME280;5753;54.402;10.220;2023-05-29T02:22:20;102432.03;;;17.95;43.56
11395;BME280;5753;54.402;10.220;2023-05-29T02:24:46;102431.81;;;18.60;42.21
11395;BME280;5753;54.402;10.220;2023-05-29T02:27:12;102422.88;;;18.32;42.83
11395;BME280;5753;54.402;10.220;2023-05-29T02:29:38;102433.53;;;18.53;42.72
11395;BME280;5753;54.402;10.220;2023-05-29T02:32:04;102423.28;;;18.78;41.90
11395;BME280;5753;54.402;10.220;2023-05-29T02:34:31;102419.66;;;18.61;42.29
11395;BME280;5753;54.402;10.220;2023-05-29T02:36:57;102414.94;;;18.21;43.14
11395;BME280;5753;54.402;10.220;2023-05-29T02:39:23;102417.13;;;18.68;41.98
11395;BME280;5753;54.402;10.220;2023-05-29T02:41:49;102410.81;;;18.45;42.01
11395;BME280;5753;54.402;10.220;2023-05-29T02:44:15;102415.00;;;18.28;42.56
11395;BME280;5753;54.402;10.220;2023-05-29T02:46:41;102412.41;;;18.32;42.58
11395;BME280;5753;54.402;10.220;2023-05-29T02:49:08;102414.09;;;18.25;42.52
11395;BME280;5753;54.402;10.220;2023-05-29T02:51:34;102414.50;;;18.65;42.00
11395;BME280;5753;54.402;10.220;2023-05-29T02:54:00;102413.47;;;18.51;41.99
11395;BME280;5753;54.402;10.220;2023-05-29T02:56:26;102426.53;;;18.51;41.71
11395;BME280;5753;54.402;10.220;2023-05-29T02:58:53;102411.44;;;19.36;39.90
11395;BME280;5753;54.402;10.220;2023-05-29T03:01:19;102423.28;;;17.90;42.91
11395;BME280;5753;54.402;10.220;2023-05-29T03:03:45;102416.25;;;18.68;41.12
11395;BME280;5753;54.402;10.220;2023-05-29T03:06:11;102428.84;;;18.20;41.94
11395;BME280;5753;54.402;10.220;2023-05-29T03:08:42;102415.97;;;17.58;43.41
11395;BME280;5753;54.402;10.220;2023-05-29T03:11:11;102414.59;;;18.80;40.86
11395;BME280;5753;54.402;10.220;2023-05-29T03:13:38;102406.72;;;18.77;40.83
11395;BME280;5753;54.402;10.220;2023-05-29T03:16:04;102412.84;;;18.79;41.28
11395;BME280;5753;54.402;10.220;2023-05-29T03:18:30;102417.94;;;18.63;41.27
11395;BME280;5753;54.402;10.220;2023-05-29T03:20:57;102406.94;;;18.02;42.30
11395;BME280;5753;54.402;10.220;2023-05-29T03:23:24;102404.81;;;18.58;41.20
11395;BME280;5753;54.402;10.220;2023-05-29T03:25:50;102403.44;;;19.03;40.41
11395;BME280;5753;54.402;10.220;2023-05-29T03:28:16;102407.09;;;18.18;42.55
11395;BME280;5753;54.402;10.220;2023-05-29T03:30:42;102411.91;;;18.68;41.12
11395;BME280;5753;54.402;10.220;2023-05-29T03:33:08;102412.72;;;18.63;41.60
11395;BME280;5753;54.402;10.220;2023-05-29T03:35:34;102413.25;;;18.27;42.44
11395;BME280;5753;54.402;10.220;2023-05-29T03:38:00;102420.53;;;18.61;41.78
11395;BME280;5753;54.402;10.220;2023-05-29T03:40:26;102429.13;;;18.48;42.03
11395;BME280;5753;54.402;10.220;2023-05-29T03:42:52;102424.09;;;18.69;42.01
11395;BME280;5753;54.402;10.220;2023-05-29T03:45:19;102422.28;;;17.77;43.44
11395;BME280;5753;54.402;10.220;2023-05-29T03:47:45;102416.53;;;18.07;42.70
11395;BME280;5753;54.402;10.220;2023-05-29T03:50:11;102421.72;;;18.01;43.36
11395;BME280;5753;54.402;10.220;2023-05-29T03:52:41;102411.38;;;18.13;42.88
11395;BME280;5753;54.402;10.220;2023-05-29T03:55:09;102420.16;;;18.21;42.47
11395;BME280;5753;54.402;10.220;2023-05-29T03:57:39;102413.31;;;18.34;42.59
11395;BME280;5753;54.402;10.220;2023-05-29T04:00:08;102421.59;;;18.87;41.76
11395;BME280;5753;54.402;10.220;2023-05-29T04:02:36;102426.38;;;18.36;42.09
11395;BME280;5753;54.402;10.220;2023-05-29T04:05:04;102433.81;;;18.88;41.47
11395;BME280;5753;54.402;10.220;2023-05-29T04:07:30;102439.03;;;18.87;41.76
11395;BME280;5753;54.402;10.220;2023-05-29T04:09:56;102438.56;;;19.50;40.62
11395;BME280;5753;54.402;10.220;2023-05-29T04:12:22;102439.97;;;18.97;41.18
11395;BME280;5753;54.402;10.220;2023-05-29T04:14:48;102444.31;;;18.95;41.50
11395;BME280;5753;54.402;10.220;2023-05-29T04:17:15;102449.78;;;19.34;40.95
11395;BME280;5753;54.402;10.220;2023-05-29T04:19:41;102437.72;;;19.56;40.47
11395;BME280;5753;54.402;10.220;2023-05-29T04:22:07;102454.03;;;19.14;40.47
11395;BME280;5753;54.402;10.220;2023-05-29T04:24:33;102438.56;;;19.52;40.06
11395;BME280;5753;54.402;10.220;2023-05-29T04:27:01;102446.63;;;20.07;39.22
11395;BME280;5753;54.402;10.220;2023-05-29T04:29:29;102447.19;;;19.37;40.73
11395;BME280;5753;54.402;10.220;2023-05-29T04:31:55;102444.94;;;20.36;39.06
11395;BME280;5753;54.402;10.220;2023-05-29T04:34:21;102454.97;;;19.27;40.71
11395;BME280;5753;54.402;10.220;2023-05-29T04:36:48;102441.38;;;20.02;39.99
11395;BME280;5753;54.402;10.220;2023-05-29T04:39:14;102450.03;;;19.85;39.66
11395;BME280;5753;54.402;10.220;2023-05-29T04:41:41;102459.69;;;19.99;39.63
11395;BME280;5753;54.402;10.220;2023-05-29T04:44:09;102445.78;;;20.22;38.94
11395;BME280;5753;54.402;10.220;2023-05-29T04:46:37;102456.31;;;20.40;39.26
11395;BME280;5753;54.402;10.220;2023-05-29T04:49:04;102465.94;;;20.56;38.67
11395;BME280;5753;54.402;10.220;2023-05-29T04:51:30;102459.72;;;20.18;39.26
11395;BME280;5753;54.402;10.220;2023-05-29T04:53:57;102471.78;;;19.67;39.91
11395;BME280;5753;54.402;10.220;2023-05-29T04:56:23;102462.34;;;20.11;39.42
11395;BME280;5753;54.402;10.220;2023-05-29T04:58:49;102465.91;;;21.08;38.00
11395;BME280;5753;54.402;10.220;2023-05-29T05:01:16;102462.41;;;21.06;37.41
11395;BME280;5753;54.402;10.220;2023-05-29T05:03:43;102456.16;;;21.62;37.27
11395;BME280;5753;54.402;10.220;2023-05-29T05:06:10;102464.75;;;21.99;36.19
11395;BME280;5753;54.402;10.220;2023-05-29T05:08:36;102458.94;;;20.72;37.96
11395;BME280;5753;54.402;10.220;2023-05-29T05:11:03;102458.66;;;21.92;35.76
11395;BME280;5753;54.402;10.220;2023-05-29T05:13:29;102460.28;;;22.24;35.67
11395;BME280;5753;54.402;10.220;2023-05-29T05:15:55;102463.19;;;21.57;36.52
11395;BME280;5753;54.402;10.220;2023-05-29T05:18:21;102461.41;;;21.62;36.78
11395;BME280;5753;54.402;10.220;2023-05-29T05:20:47;102464.84;;;21.75;37.05
11395;BME280;5753;54.402;10.220;2023-05-29T05:23:13;102462.38;;;21.20;37.39
11395;BME280;5753;54.402;10.220;2023-05-29T05:25:40;102464.09;;;21.48;36.66
11395;BME280;5753;54.402;10.220;2023-05-29T05:28:07;102458.94;;;20.70;38.44
11395;BME280;5753;54.402;10.220;2023-05-29T05:30:33;102444.03;;;21.15;37.94
11395;BME280;5753;54.402;10.220;2023-05-29T05:32:59;102449.97;;;21.83;36.71
11395;BME280;5753;54.402;10.220;2023-05-29T05:35:26;102462.00;;;22.25;36.06
11395;BME280;5753;54.402;10.220;2023-05-29T05:37:52;102461.28;;;21.92;36.35
11395;BME280;5753;54.402;10.220;2023-05-29T05:40:18;102456.91;;;21.93;36.38
11395;BME280;5753;54.402;10.220;2023-05-29T05:42:44;102459.78;;;20.39;39.21
11395;BME280;5753;54.402;10.220;2023-05-29T05:45:10;102465.06;;;20.48;38.78
11395;BME280;5753;54.402;10.220;2023-05-29T05:47:36;102463.19;;;21.55;36.98
11395;BME280;5753;54.402;10.220;2023-05-29T05:50:03;102462.34;;;21.46;37.20
11395;BME280;5753;54.402;10.220;2023-05-29T05:52:29;102463.91;;;21.92;37.43
11395;BME280;5753;54.402;10.220;2023-05-29T05:54:57;102465.03;;;21.35;37.06
11395;BME280;5753;54.402;10.220;2023-05-29T05:57:23;102465.06;;;20.63;38.13
11395;BME280;5753;54.402;10.220;2023-05-29T05:59:49;102465.91;;;21.05;38.14
11395;BME280;5753;54.402;10.220;2023-05-29T06:02:15;102471.66;;;22.17;36.22
11395;BME280;5753;54.402;10.220;2023-05-29T06:04:41;102469.38;;;21.15;38.18
11395;BME280;5753;54.402;10.220;2023-05-29T06:07:07;102469.44;;;20.67;39.20
11395;BME280;5753;54.402;10.220;2023-05-29T06:09:34;102471.09;;;21.46;37.93
11395;BME280;5753;54.402;10.220;2023-05-29T06:12:00;102475.16;;;22.20;36.00
11395;BME280;5753;54.402;10.220;2023-05-29T06:14:26;102473.53;;;21.96;36.21
11395;BME280;5753;54.402;10.220;2023-05-29T06:16:52;102480.66;;;21.61;37.06
11395;BME280;5753;54.402;10.220;2023-05-29T06:19:19;102479.03;;;21.29;38.31
11395;BME280;5753;54.402;10.220;2023-05-29T06:21:46;102478.75;;;21.99;37.12
11395;BME280;5753;54.402;10.220;2023-05-29T06:24:12;102481.28;;;22.18;35.57
11395;BME280;5753;54.402;10.220;2023-05-29T06:26:39;102493.00;;;20.72;38.64
11395;BME280;5753;54.402;10.220;2023-05-29T06:29:05;102486.47;;;22.35;36.17
11395;BME280;5753;54.402;10.220;2023-05-29T06:31:32;102494.69;;;21.54;37.47
11395;BME280;5753;54.402;10.220;2023-05-29T06:33:59;102490.97;;;22.10;36.42
11395;BME280;5753;54.402;10.220;2023-05-29T06:36:25;102486.44;;;22.36;36.09
11395;BME280;5753;54.402;10.220;2023-05-29T06:38:51;102492.75;;;21.98;36.92
11395;BME280;5753;54.402;10.220;2023-05-29T06:41:18;102493.94;;;22.91;35.61
11395;BME280;5753;54.402;10.220;2023-05-29T06:43:44;102489.97;;;23.38;34.38
11395;BME280;5753;54.402;10.220;2023-05-29T06:46:10;102494.41;;;24.06;33.77
11395;BME280;5753;54.402;10.220;2023-05-29T06:48:37;102481.75;;;23.68;33.91
11395;BME280;5753;54.402;10.220;2023-05-29T06:51:04;102488.03;;;23.57;34.04
11395;BME280;5753;54.402;10.220;2023-05-29T06:53:41;102493.50;;;22.31;36.14
11395;BME280;5753;54.402;10.220;2023-05-29T06:56:07;102496.81;;;23.55;34.35
11395;BME280;5753;54.402;10.220;2023-05-29T06:58:34;102478.25;;;24.32;32.94
11395;BME280;5753;54.402;10.220;2023-05-29T07:01:00;102489.25;;;23.99;33.73
11395;BME280;5753;54.402;10.220;2023-05-29T07:03:27;102487.88;;;24.36;33.08
11395;BME280;5753;54.402;10.220;2023-05-29T07:05:53;102483.47;;;23.71;33.92
11395;BME280;5753;54.402;10.220;2023-05-29T07:08:20;102493.88;;;24.44;32.57
11395;BME280;5753;54.402;10.220;2023-05-29T07:10:46;102486.97;;;24.37;32.97
11395;BME280;5753;54.402;10.220;2023-05-29T07:13:16;102504.66;;;22.60;35.87
11395;BME280;5753;54.402;10.220;2023-05-29T07:15:43;102498.56;;;23.52;33.89
11395;BME280;5753;54.402;10.220;2023-05-29T07:18:10;102501.06;;;22.74;35.02
11395;BME280;5753;54.402;10.220;2023-05-29T07:20:37;102509.03;;;22.60;35.88
11395;BME280;5753;54.402;10.220;2023-05-29T07:23:03;102506.88;;;21.79;36.38
11395;BME280;5753;54.402;10.220;2023-05-29T07:25:30;102503.97;;;22.34;36.70
11395;BME280;5753;54.402;10.220;2023-05-29T07:27:56;102501.59;;;23.14;35.27
11395;BME280;5753;54.402;10.220;2023-05-29T07:30:22;102494.97;;;22.66;35.09
11395;BME280;5753;54.402;10.220;2023-05-29T07:32:49;102496.22;;;23.29;34.52
11395;BME280;5753;54.402;10.220;2023-05-29T07:35:15;102498.59;;;23.49;34.06
11395;BME280;5753;54.402;10.220;2023-05-29T07:37:41;102507.19;;;23.69;33.32
11395;BME280;5753;54.402;10.220;2023-05-29T07:40:07;102502.25;;;23.39;34.20
11395;BME280;5753;54.402;10.220;2023-05-29T07:42:34;102496.25;;;24.00;33.70
11395;BME280;5753;54.402;10.220;2023-05-29T07:45:00;102502.97;;;24.24;33.26
11395;BME280;5753;54.402;10.220;2023-05-29T07:47:26;102505.00;;;24.02;32.95
11395;BME280;5753;54.402;10.220;2023-05-29T07:49:52;102503.03;;;23.45;33.27
11395;BME280;5753;54.402;10.220;2023-05-29T07:52:19;102500.63;;;24.64;31.63
11395;BME280;5753;54.402;10.220;2023-05-29T07:54:45;102513.63;;;24.74;32.08
11395;BME280;5753;54.402;10.220;2023-05-29T07:57:11;102497.06;;;25.19;31.23
11395;BME280;5753;54.402;10.220;2023-05-29T07:59:38;102504.09;;;24.67;31.68
11395;BME280;5753;54.402;10.220;2023-05-29T08:02:06;102507.31;;;24.29;32.43
11395;BME280;5753;54.402;10.220;2023-05-29T08:04:32;102513.47;;;24.27;32.32
11395;BME280;5753;54.402;10.220;2023-05-29T08:07:00;102507.28;;;24.86;32.04
11395;BME280;5753;54.402;10.220;2023-05-29T08:09:26;102504.88;;;24.14;32.24
11395;BME280;5753;54.402;10.220;2023-05-29T08:11:53;102508.31;;;24.19;32.12
11395;BME280;5753;54.402;10.220;2023-05-29T08:14:19;102510.09;;;24.75;31.12
11395;BME280;5753;54.402;10.220;2023-05-29T08:16:45;102505.00;;;24.65;31.48
11395;BME280;5753;54.402;10.220;2023-05-29T08:19:11;102506.28;;;24.93;31.52
11395;BME280;5753;54.402;10.220;2023-05-29T08:21:37;102518.91;;;25.27;31.48
11395;BME280;5753;54.402;10.220;2023-05-29T08:24:04;102502.53;;;25.09;32.12
11395;BME280;5753;54.402;10.220;2023-05-29T08:26:32;102510.56;;;25.00;31.20
11395;BME280;5753;54.402;10.220;2023-05-29T08:28:59;102505.66;;;24.79;31.48
11395;BME280;5753;54.402;10.220;2023-05-29T08:31:25;102498.97;;;24.55;32.25
11395;BME280;5753;54.402;10.220;2023-05-29T08:33:51;102500.56;;;26.07;29.63
11395;BME280;5753;54.402;10.220;2023-05-29T08:36:18;102511.13;;;25.19;30.56
11395;BME280;5753;54.402;10.220;2023-05-29T08:38:47;102516.84;;;25.42;30.03
11395;BME280;5753;54.402;10.220;2023-05-29T08:41:21;102519.13;;;24.59;32.77
11395;BME280;5753;54.402;10.220;2023-05-29T08:43:50;102516.75;;;25.92;30.30
11395;BME280;5753;54.402;10.220;2023-05-29T08:46:18;102523.66;;;25.08;30.72
11395;BME280;5753;54.402;10.220;2023-05-29T08:48:48;102522.69;;;25.14;30.83
11395;BME280;5753;54.402;10.220;2023-05-29T08:51:19;102521.78;;;25.61;30.83
11395;BME280;5753;54.402;10.220;2023-05-29T08:53:47;102517.28;;;26.09;30.41
11395;BME280;5753;54.402;10.220;2023-05-29T08:56:14;102516.09;;;26.22;31.02
11395;BME280;5753;54.402;10.220;2023-05-29T08:58:40;102509.16;;;26.17;31.34
11395;BME280;5753;54.402;10.220;2023-05-29T09:01:06;102512.88;;;26.08;30.98
11395;BME280;5753;54.402;10.220;2023-05-29T09:03:33;102513.81;;;25.18;32.47
11395;BME280;5753;54.402;10.220;2023-05-29T09:06:00;102517.03;;;24.81;33.57
11395;BME280;5753;54.402;10.220;2023-05-29T09:08:26;102507.34;;;26.19;31.49
11395;BME280;5753;54.402;10.220;2023-05-29T09:10:54;102514.66;;;25.18;33.15
11395;BME280;5753;54.402;10.220;2023-05-29T09:13:21;102516.66;;;27.09;30.71
11395;BME280;5753;54.402;10.220;2023-05-29T09:15:47;102523.69;;;26.75;30.63
11395;BME280;5753;54.402;10.220;2023-05-29T09:18:13;102520.50;;;25.82;32.03
11395;BME280;5753;54.402;10.220;2023-05-29T09:20:42;102520.28;;;26.70;30.95
11395;BME280;5753;54.402;10.220;2023-05-29T09:23:09;102510.38;;;27.13;30.12
11395;BME280;5753;54.402;10.220;2023-05-29T09:25:40;102517.91;;;26.59;30.54
11395;BME280;5753;54.402;10.220;2023-05-29T09:28:09;102518.31;;;26.41;30.42
11395;BME280;5753;54.402;10.220;2023-05-29T09:30:42;102530.66;;;26.00;31.11
11395;BME280;5753;54.402;10.220;2023-05-29T09:33:14;102521.66;;;26.50;31.99
11395;BME280;5753;54.402;10.220;2023-05-29T09:35:44;102521.72;;;26.83;31.70
11395;BME280;5753;54.402;10.220;2023-05-29T09:38:12;102526.72;;;26.93;30.05
11395;BME280;5753;54.402;10.220;2023-05-29T09:40:39;102526.88;;;27.23;30.95
11395;BME280;5753;54.402;10.220;2023-05-29T09:45:37;102532.75;;;27.02;31.01
11395;BME280;5753;54.402;10.220;2023-05-29T09:48:10;102530.81;;;28.03;28.98
11395;BME280;5753;54.402;10.220;2023-05-29T09:50:38;102533.94;;;26.53;30.60
11395;BME280;5753;54.402;10.220;2023-05-29T09:55:42;102536.72;;;26.82;29.93
11395;BME280;5753;54.402;10.220;2023-05-29T09:58:11;102521.88;;;28.35;28.10
11395;BME280;5753;54.402;10.220;2023-05-29T10:00:41;102527.34;;;28.30;28.11
11395;BME280;5753;54.402;10.220;2023-05-29T10:03:07;102525.53;;;26.32;30.51
11395;BME280;5753;54.402;10.220;2023-05-29T10:05:33;102523.53;;;26.44;29.73
11395;BME280;5753;54.402;10.220;2023-05-29T10:07:59;102524.22;;;27.55;28.95
11395;BME280;5753;54.402;10.220;2023-05-29T10:10:28;102530.84;;;28.59;27.71
11395;BME280;5753;54.402;10.220;2023-05-29T10:12:55;102533.56;;;28.29;27.74
11395;BME280;5753;54.402;10.220;2023-05-29T10:15:24;102539.03;;;27.30;29.55
11395;BME280;5753;54.402;10.220;2023-05-29T10:18:16;102531.97;;;27.94;28.03
11395;BME280;5753;54.402;10.220;2023-05-29T10:20:48;102523.56;;;28.65;28.14
11395;BME280;5753;54.402;10.220;2023-05-29T10:23:21;102526.47;;;28.00;26.68
11395;BME280;5753;54.402;10.220;2023-05-29T10:26:02;102517.16;;;29.24;26.09
11395;BME280;5753;54.402;10.220;2023-05-29T10:28:33;102519.50;;;29.58;25.19
11395;BME280;5753;54.402;10.220;2023-05-29T10:31:09;102515.50;;;28.12;26.37
11395;BME280;5753;54.402;10.220;2023-05-29T10:36:19;102517.13;;;28.72;26.24
11395;BME280;5753;54.402;10.220;2023-05-29T10:38:48;102525.91;;;29.52;25.56
11395;BME280;5753;54.402;10.220;2023-05-29T10:41:35;102510.47;;;28.03;26.41
11395;BME280;5753;54.402;10.220;2023-05-29T10:47:04;102510.72;;;30.02;24.59
11395;BME280;5753;54.402;10.220;2023-05-29T10:49:31;102510.31;;;29.90;24.77
11395;BME280;5753;54.402;10.220;2023-05-29T10:51:58;102509.06;;;28.75;25.53
11395;BME280;5753;54.402;10.220;2023-05-29T10:54:26;102507.53;;;29.93;24.88
11395;BME280;5753;54.402;10.220;2023-05-29T10:56:56;102504.13;;;28.37;26.74
11395;BME280;5753;54.402;10.220;2023-05-29T10:59:23;102498.75;;;29.67;24.97
11395;BME280;5753;54.402;10.220;2023-05-29T11:01:53;102509.22;;;30.62;23.77
11395;BME280;5753;54.402;10.220;2023-05-29T11:06:53;102511.97;;;30.16;23.50
11395;BME280;5753;54.402;10.220;2023-05-29T11:09:37;102505.06;;;29.15;25.76
11395;BME280;5753;54.402;10.220;2023-05-29T11:12:25;102511.00;;;29.95;25.34
11395;BME280;5753;54.402;10.220;2023-05-29T11:15:09;102512.88;;;30.38;23.65
11395;BME280;5753;54.402;10.220;2023-05-29T11:23:05;102502.13;;;31.04;21.78
11395;BME280;5753;54.402;10.220;2023-05-29T11:25:35;102509.28;;;29.21;24.26
11395;BME280;5753;54.402;10.220;2023-05-29T11:28:03;102511.72;;;30.22;22.70
11395;BME280;5753;54.402;10.220;2023-05-29T11:30:44;102501.75;;;31.72;21.86
11395;BME280;5753;54.402;10.220;2023-05-29T11:33:20;102501.22;;;29.72;23.89
11395;BME280;5753;54.402;10.220;2023-05-29T11:35:55;102510.13;;;30.18;22.65
11395;BME280;5753;54.402;10.220;2023-05-29T11:38:22;102504.75;;;32.21;20.68
11395;BME280;5753;54.402;10.220;2023-05-29T11:40:49;102503.44;;;30.51;22.06
11395;BME280;5753;54.402;10.220;2023-05-29T11:43:15;102502.47;;;30.32;23.39
11395;BME280;5753;54.402;10.220;2023-05-29T11:45:41;102505.03;;;30.55;22.25
11395;BME280;5753;54.402;10.220;2023-05-29T11:48:07;102501.94;;;30.22;22.34
11395;BME280;5753;54.402;10.220;2023-05-29T11:50:35;102508.22;;;32.23;21.64
11395;BME280;5753;54.402;10.220;2023-05-29T11:53:01;102501.06;;;32.60;20.84
11395;BME280;5753;54.402;10.220;2023-05-29T11:55:28;102503.56;;;31.51;20.64
11395;BME280;5753;54.402;10.220;2023-05-29T11:58:02;102498.38;;;33.46;19.13
11395;BME280;5753;54.402;10.220;2023-05-29T12:00:37;102487.00;;;32.56;19.33
11395;BME280;5753;54.402;10.220;2023-05-29T12:03:04;102489.91;;;32.51;20.32
11395;BME280;5753;54.402;10.220;2023-05-29T12:05:32;102476.94;;;32.80;19.68
11395;BME280;5753;54.402;10.220;2023-05-29T12:07:58;102473.97;;;33.52;18.41
11395;BME280;5753;54.402;10.220;2023-05-29T12:10:28;102483.25;;;33.94;18.73
11395;BME280;5753;54.402;10.220;2023-05-29T12:12:59;102487.25;;;34.94;18.26
11395;BME280;5753;54.402;10.220;2023-05-29T12:15:27;102483.25;;;35.29;17.17
11395;BME280;5753;54.402;10.220;2023-05-29T12:17:54;102476.81;;;36.30;15.74
11395;BME280;5753;54.402;10.220;2023-05-29T12:20:25;102486.44;;;37.25;15.20
11395;BME280;5753;54.402;10.220;2023-05-29T12:23:01;102483.09;;;37.83;14.49
11395;BME280;5753;54.402;10.220;2023-05-29T12:25:27;102485.97;;;37.56;14.47
11395;BME280;5753;54.402;10.220;2023-05-29T12:27:56;102480.34;;;37.72;14.57
11395;BME280;5753;54.402;10.220;2023-05-29T12:30:23;102477.22;;;38.85;13.71
11395;BME280;5753;54.402;10.220;2023-05-29T12:32:53;102490.41;;;39.56;13.46
11395;BME280;5753;54.402;10.220;2023-05-29T12:35:23;102491.66;;;39.52;14.09
11395;BME280;5753;54.402;10.220;2023-05-29T12:37:54;102484.31;;;38.51;13.60
11395;BME280;5753;54.402;10.220;2023-05-29T12:40:27;102480.63;;;38.76;13.09
11395;BME280;5753;54.402;10.220;2023-05-29T12:43:05;102482.34;;;37.81;13.75
11395;BME280;5753;54.402;10.220;2023-05-29T12:45:33;102489.53;;;39.11;12.71
11395;BME280;5753;54.402;10.220;2023-05-29T12:48:15;102478.88;;;39.43;12.43
11395;BME280;5753;54.402;10.220;2023-05-29T12:50:41;102489.19;;;38.69;13.52
11395;BME280;5753;54.402;10.220;2023-05-29T12:53:08;102482.19;;;40.12;12.33
11395;BME280;5753;54.402;10.220;2023-05-29T12:55:39;102474.81;;;40.14;11.74
11395;BME280;5753;54.402;10.220;2023-05-29T12:58:09;102480.53;;;38.99;11.93
11395;BME280;5753;54.402;10.220;2023-05-29T13:00:37;102479.25;;;37.87;12.57
11395;BME280;5753;54.402;10.220;2023-05-29T13:03:07;102488.75;;;39.99;12.04
11395;BME280;5753;54.402;10.220;2023-05-29T13:05:34;102491.06;;;40.46;11.85
11395;BME280;5753;54.402;10.220;2023-05-29T13:08:09;102491.13;;;39.14;12.29
11395;BME280;5753;54.402;10.220;2023-05-29T13:10:36;102485.88;;;39.34;12.29
11395;BME280;5753;54.402;10.220;2023-05-29T13:13:02;102486.47;;;38.69;12.59
11395;BME280;5753;54.402;10.220;2023-05-29T13:15:42;102490.22;;;40.03;12.02
11395;BME280;5753;54.402;10.220;2023-05-29T13:18:28;102482.16;;;39.69;12.03
11395;BME280;5753;54.402;10.220;2023-05-29T13:20:59;102475.97;;;40.01;11.60
11395;BME280;5753;54.402;10.220;2023-05-29T13:23:25;102463.47;;;40.00;12.09
11395;BME280;5753;54.402;10.220;2023-05-29T13:25:51;102464.13;;;40.24;11.08